createdAt,value
2019-03-27T00:01:58.442Z,17.63
2019-03-27T00:04:29.797Z,16.37
2019-03-27T00:07:00.871Z,14.50
2019-03-27T00:09:32.056Z,15.40
2019-03-27T00:12:02.628Z,15.77
2019-03-27T00:14:33.128Z,15.00
2019-03-27T00:17:04.096Z,14.93
2019-03-27T00:19:34.865Z,13.23
2019-03-27T00:22:05.776Z,13.17
2019-03-27T00:24:36.498Z,14.30
2019-03-27T00:27:07.335Z,15.20
2019-03-27T00:29:37.728Z,13.93
2019-03-27T00:32:08.904Z,15.30
2019-03-27T00:34:39.398Z,16.40
2019-03-27T00:37:09.897Z,17.53
2019-03-27T00:39:40.825Z,15.87
2019-03-27T00:42:11.349Z,13.17
2019-03-27T00:44:42.196Z,13.37
2019-03-27T00:47:13.481Z,14.93
2019-03-27T00:49:44.253Z,16.97
2019-03-27T00:52:14.983Z,17.03
2019-03-27T00:54:45.597Z,15.30
2019-03-27T00:57:16.029Z,14.63
2019-03-27T00:59:46.812Z,15.17
2019-03-27T01:02:17.267Z,13.73
2019-03-27T01:04:48.145Z,13.30
2019-03-27T01:07:18.962Z,12.47
2019-03-27T01:09:49.628Z,13.77
2019-03-27T01:12:20.506Z,15.00
2019-03-27T01:14:51.115Z,15.83
2019-03-27T01:17:22.087Z,16.57
2019-03-27T01:19:52.573Z,17.93
2019-03-27T01:22:23.446Z,16.50
2019-03-27T01:24:54.160Z,16.27
2019-03-27T01:27:24.570Z,16.90
2019-03-27T01:29:54.996Z,17.03
2019-03-27T01:32:25.407Z,17.17
2019-03-27T01:34:56.167Z,16.47
2019-03-27T01:37:26.662Z,16.53
2019-03-27T01:39:57.634Z,15.70
2019-03-27T01:42:28.088Z,16.47
2019-03-27T01:44:58.609Z,18.10
2019-03-27T01:47:29.488Z,18.60
2019-03-27T01:50:00.060Z,17.77
2019-03-27T01:52:30.669Z,18.00
2019-03-27T01:55:01.153Z,17.47
2019-03-27T01:57:32.122Z,15.97
2019-03-27T02:00:02.599Z,15.13
2019-03-27T02:02:33.063Z,16.37
2019-03-27T02:05:03.822Z,17.77
2019-03-27T02:07:34.323Z,15.87
2019-03-27T02:10:06.383Z,16.50
2019-03-27T02:12:36.885Z,15.30
2019-03-27T02:15:08.811Z,13.27
2019-03-27T02:17:39.381Z,15.30
2019-03-27T02:20:11.954Z,15.47
2019-03-27T02:22:42.706Z,16.70
2019-03-27T02:25:13.207Z,18.90
2019-03-27T02:27:44.039Z,20.53
2019-03-27T02:30:14.677Z,19.83
2019-03-27T02:32:45.281Z,17.77
2019-03-27T02:35:15.921Z,16.63
2019-03-27T02:37:46.423Z,17.03
2019-03-27T02:40:17.219Z,19.73
2019-03-27T02:42:47.645Z,19.80
2019-03-27T02:45:18.492Z,19.90
2019-03-27T02:47:49.049Z,21.27
2019-03-27T02:50:19.762Z,19.73
2019-03-27T02:52:50.187Z,18.47
2019-03-27T02:55:20.700Z,17.50
2019-03-27T02:57:51.613Z,17.43
2019-03-27T03:00:22.208Z,17.53
2019-03-27T03:02:52.804Z,14.63
2019-03-27T03:05:23.368Z,17.30
2019-03-27T03:07:53.720Z,16.17
2019-03-27T03:10:24.468Z,20.53
2019-03-27T03:12:54.955Z,22.07
2019-03-27T03:15:26.131Z,22.30
2019-03-27T03:17:56.612Z,23.27
2019-03-27T03:20:27.616Z,21.37
2019-03-27T03:22:59.761Z,18.97
2019-03-27T03:25:31.038Z,16.20
2019-03-27T03:28:01.500Z,15.97
2019-03-27T03:30:31.910Z,17.20
2019-03-27T03:33:02.440Z,21.33
2019-03-27T03:35:33.114Z,23.77
2019-03-27T03:38:03.937Z,22.73
2019-03-27T03:40:35.078Z,24.67
2019-03-27T03:43:06.249Z,24.83
2019-03-27T03:45:36.808Z,21.67
2019-03-27T03:48:07.206Z,20.97
2019-03-27T03:50:44.560Z,19.47
2019-03-27T03:53:16.015Z,18.97
2019-03-27T03:55:46.618Z,18.33
2019-03-27T03:58:18.016Z,19.23
2019-03-27T04:00:49.642Z,21.13
2019-03-27T04:03:22.557Z,22.60
2019-03-27T04:05:53.016Z,22.03
2019-03-27T04:08:23.984Z,22.47
2019-03-27T04:10:54.694Z,22.37
2019-03-27T04:13:25.155Z,21.17
2019-03-27T04:15:55.899Z,18.80
2019-03-27T04:18:26.798Z,20.13
2019-03-27T04:20:57.381Z,19.27
2019-03-27T04:23:28.892Z,16.77
2019-03-27T04:26:09.849Z,18.20
2019-03-27T04:28:31.659Z,17.40
2019-03-27T04:31:02.240Z,17.93
2019-03-27T04:33:32.637Z,19.93
2019-03-27T04:36:03.125Z,18.17
2019-03-27T04:38:35.384Z,21.37
2019-03-27T04:41:05.945Z,23.13
2019-03-27T04:43:36.581Z,21.57
2019-03-27T04:46:07.500Z,21.80
2019-03-27T04:48:38.000Z,22.53
2019-03-27T04:51:08.600Z,20.77
2019-03-27T04:53:39.168Z,19.30
2019-03-27T04:56:09.895Z,19.17
2019-03-27T04:58:40.302Z,19.67
2019-03-27T05:01:10.685Z,18.33
2019-03-27T05:03:41.195Z,17.20
2019-03-27T05:06:11.965Z,18.50
2019-03-27T05:08:42.391Z,20.13
2019-03-27T05:11:12.827Z,20.80
2019-03-27T05:13:43.440Z,21.27
2019-03-27T05:16:14.081Z,23.10
2019-03-27T05:18:45.509Z,22.07
2019-03-27T05:21:16.469Z,22.13
2019-03-27T05:23:46.915Z,22.23
2019-03-27T05:26:17.709Z,23.03
2019-03-27T05:28:48.289Z,24.00
2019-03-27T05:31:19.227Z,24.37
2019-03-27T05:33:50.175Z,25.70
2019-03-27T05:36:20.812Z,24.00
2019-03-27T05:38:52.264Z,29.43
2019-03-27T05:41:22.820Z,30.33
2019-03-27T05:43:53.703Z,24.93
2019-03-27T05:46:26.678Z,27.50
2019-03-27T05:48:57.317Z,25.80
2019-03-27T05:51:27.776Z,21.97
2019-03-27T05:53:58.205Z,18.23
2019-03-27T05:56:28.848Z,13.97
2019-03-27T05:58:59.588Z,13.80
2019-03-27T06:01:30.142Z,11.50
2019-03-27T06:04:00.848Z,11.53
2019-03-27T06:06:31.417Z,11.17
2019-03-27T06:09:02.437Z,9.73
2019-03-27T06:11:33.220Z,9.37
2019-03-27T06:14:03.769Z,11.67
2019-03-27T06:16:34.178Z,10.50
2019-03-27T06:19:04.674Z,10.67
2019-03-27T06:21:35.228Z,11.50
2019-03-27T06:24:06.052Z,11.17
2019-03-27T06:26:38.669Z,10.43
2019-03-27T06:29:09.302Z,11.00
2019-03-27T06:31:40.042Z,10.13
2019-03-27T06:34:11.144Z,11.40
2019-03-27T06:36:42.084Z,10.77
2019-03-27T06:39:12.637Z,10.40
2019-03-27T06:41:43.234Z,10.80
2019-03-27T06:44:13.905Z,10.40
2019-03-27T06:46:45.245Z,10.10
2019-03-27T06:49:15.849Z,10.67
2019-03-27T06:51:46.470Z,10.03
2019-03-27T06:54:17.014Z,8.70
2019-03-27T06:56:47.862Z,10.30
2019-03-27T06:59:18.622Z,9.47
2019-03-27T07:01:49.305Z,9.27
2019-03-27T07:04:19.722Z,7.67
2019-03-27T07:06:50.719Z,8.63
2019-03-27T07:09:21.219Z,8.45
2019-03-27T07:11:52.593Z,7.75
2019-03-27T07:14:23.837Z,8.90
2019-03-27T07:16:54.342Z,9.70
2019-03-27T07:19:25.254Z,8.25
2019-03-27T07:21:55.907Z,8.48
2019-03-27T07:24:26.932Z,8.93
2019-03-27T07:26:57.474Z,7.70
2019-03-27T07:29:28.236Z,8.18
2019-03-27T07:31:58.930Z,7.70
2019-03-27T07:34:29.327Z,8.05
2019-03-27T07:37:00.068Z,8.60
2019-03-27T07:39:30.876Z,8.50
2019-03-27T07:42:01.522Z,8.68
2019-03-27T07:44:32.883Z,9.28
2019-03-27T07:47:03.575Z,7.75
2019-03-27T07:49:34.057Z,8.78
2019-03-27T07:52:04.693Z,8.25
2019-03-27T07:54:35.539Z,9.65
2019-03-27T07:57:06.202Z,9.48
2019-03-27T07:59:36.707Z,10.68
2019-03-27T08:02:07.254Z,11.22
2019-03-27T08:04:37.813Z,10.32
2019-03-27T08:07:08.440Z,12.13
2019-03-27T08:09:38.923Z,11.83
2019-03-27T08:12:10.204Z,11.95
2019-03-27T08:14:41.040Z,13.20
2019-03-27T08:17:11.873Z,11.60
2019-03-27T08:19:42.661Z,10.63
2019-03-27T08:22:13.678Z,11.73
2019-03-27T08:24:44.230Z,15.30
2019-03-27T08:27:14.764Z,13.80
2019-03-27T08:29:45.362Z,13.80
2019-03-27T08:32:15.856Z,16.00
2019-03-27T08:34:46.439Z,13.53
2019-03-27T08:37:17.186Z,13.53
2019-03-27T08:39:47.764Z,13.03
2019-03-27T08:42:18.693Z,16.00
2019-03-27T08:44:49.154Z,14.10
2019-03-27T08:47:20.320Z,12.97
2019-03-27T08:49:53.085Z,13.47
2019-03-27T08:52:23.651Z,13.73
2019-03-27T08:54:55.817Z,11.67
2019-03-27T08:57:27.387Z,10.87
2019-03-27T08:59:57.960Z,12.73
2019-03-27T09:02:28.503Z,9.47
2019-03-27T09:04:58.965Z,11.40
2019-03-27T09:07:29.676Z,9.10
2019-03-27T09:10:00.670Z,8.78
2019-03-27T09:12:31.600Z,8.33
2019-03-27T09:15:02.083Z,7.28
2019-03-27T09:17:32.771Z,8.80
2019-03-27T09:20:06.813Z,8.75
2019-03-27T09:22:37.793Z,8.08
2019-03-27T09:25:08.604Z,7.83
2019-03-27T09:27:39.358Z,7.70
2019-03-27T09:30:12.323Z,7.20
2019-03-27T09:32:42.908Z,6.05
2019-03-27T09:35:13.964Z,5.95
2019-03-27T09:37:44.835Z,9.68
2019-03-27T09:40:17.130Z,6.72
2019-03-27T09:42:47.684Z,7.75
2019-03-27T09:45:18.504Z,8.50
2019-03-27T09:47:49.049Z,8.28
2019-03-27T09:50:20.652Z,8.90
2019-03-27T09:52:51.304Z,7.77
2019-03-27T09:55:21.973Z,9.10
2019-03-27T09:57:52.562Z,8.90
2019-03-27T10:01:07.694Z,10.00
2019-03-27T10:03:38.256Z,8.10
2019-03-27T10:06:09.051Z,6.93
2019-03-27T10:08:39.782Z,7.37
2019-03-27T10:11:10.534Z,8.10
2019-03-27T10:13:40.935Z,6.20
2019-03-27T10:16:11.812Z,7.97
2019-03-27T10:18:42.366Z,8.27
2019-03-27T10:21:12.866Z,8.48
2019-03-27T10:23:43.450Z,8.33
2019-03-27T10:26:14.103Z,7.90
2019-03-27T10:28:44.924Z,8.37
2019-03-27T10:31:16.315Z,6.70
2019-03-27T10:33:47.099Z,7.90
2019-03-27T10:36:17.602Z,7.57
2019-03-27T10:38:48.476Z,6.70
2019-03-27T10:41:18.873Z,7.17
2019-03-27T10:43:49.316Z,8.17
2019-03-27T10:46:19.928Z,8.50
2019-03-27T10:48:52.911Z,9.57
2019-03-27T10:51:23.792Z,9.00
2019-03-27T10:53:56.033Z,9.67
2019-03-27T10:56:26.648Z,8.97
2019-03-27T10:58:57.181Z,9.43
2019-03-27T11:01:27.728Z,9.30
2019-03-27T11:03:58.202Z,10.27
2019-03-27T11:06:28.720Z,9.27
2019-03-27T11:08:59.297Z,10.20
2019-03-27T11:11:29.864Z,8.67
2019-03-27T11:14:02.028Z,8.97
2019-03-27T11:16:32.480Z,9.57
2019-03-27T11:19:03.012Z,8.93
2019-03-27T11:21:35.853Z,7.37
2019-03-27T11:24:06.477Z,9.30
2019-03-27T11:26:37.241Z,9.60
2019-03-27T11:29:07.804Z,8.57
2019-03-27T11:31:38.224Z,6.63
2019-03-27T11:34:08.632Z,9.93
2019-03-27T11:36:39.147Z,9.60
2019-03-27T11:39:10.606Z,7.93
2019-03-27T11:41:41.186Z,8.00
2019-03-27T11:44:12.834Z,9.30
2019-03-27T11:46:44.425Z,8.57
2019-03-27T11:49:14.987Z,8.10
2019-03-27T11:51:45.918Z,7.53
2019-03-27T11:54:17.233Z,7.73
2019-03-27T11:56:47.766Z,8.40
2019-03-27T11:59:18.668Z,9.00
2019-03-27T12:01:49.427Z,8.87
2019-03-27T12:04:20.300Z,9.70
2019-03-27T12:06:50.921Z,10.23
2019-03-27T12:09:36.748Z,8.90
2019-03-27T12:12:07.514Z,8.50
2019-03-27T12:14:54.934Z,9.40
2019-03-27T12:17:25.583Z,8.43
2019-03-27T12:19:56.171Z,7.63
2019-03-27T12:22:26.839Z,7.77
2019-03-27T12:24:58.087Z,7.33
2019-03-27T12:27:34.600Z,6.40
2019-03-27T12:30:07.511Z,5.97
2019-03-27T12:32:38.875Z,6.27
2019-03-27T12:35:09.989Z,5.73
2019-03-27T12:37:40.690Z,5.90
2019-03-27T12:40:12.181Z,6.90
2019-03-27T12:42:43.130Z,5.67
2019-03-27T12:45:14.144Z,5.23
2019-03-27T12:47:44.822Z,5.20
2019-03-27T12:50:15.722Z,5.30
2019-03-27T12:52:46.385Z,5.00
2019-03-27T12:55:17.331Z,5.90
2019-03-27T12:57:47.805Z,4.90
2019-03-27T13:00:19.162Z,6.33
2019-03-27T13:02:49.886Z,7.40
2019-03-27T13:05:20.938Z,5.70
2019-03-27T13:07:56.631Z,5.33
2019-03-27T13:10:27.697Z,6.13
2019-03-27T13:12:58.178Z,5.60
2019-03-27T13:15:28.772Z,5.20
2019-03-27T13:17:59.579Z,5.80
2019-03-27T13:20:30.246Z,5.30
2019-03-27T13:23:01.379Z,5.87
2019-03-27T13:25:31.881Z,5.73
2019-03-27T13:28:02.519Z,6.00
2019-03-27T13:30:33.688Z,6.10
2019-03-27T13:33:04.306Z,5.80
2019-03-27T13:35:35.476Z,6.53
2019-03-27T13:38:06.014Z,6.07
2019-03-27T13:40:37.373Z,5.53
2019-03-27T13:43:08.271Z,5.63
2019-03-27T13:45:38.944Z,5.23
2019-03-27T13:48:09.839Z,5.27
2019-03-27T13:50:40.367Z,5.80
2019-03-27T13:53:10.922Z,5.83
2019-03-27T13:55:41.351Z,4.90
2019-03-27T13:58:11.931Z,6.00
2019-03-27T14:00:43.012Z,5.43
2019-03-27T14:03:13.706Z,5.23
2019-03-27T14:05:44.807Z,5.47
2019-03-27T14:08:16.074Z,5.77
2019-03-27T14:10:46.653Z,5.00
2019-03-27T14:13:17.212Z,5.07
2019-03-27T14:15:47.855Z,5.77
2019-03-27T14:18:18.848Z,6.30
2019-03-27T14:20:50.936Z,6.47
2019-03-27T14:23:21.915Z,6.63
2019-03-27T14:25:52.642Z,5.30
2019-03-27T14:28:23.140Z,5.23
2019-03-27T14:30:58.555Z,4.63
2019-03-27T14:33:29.005Z,5.40
2019-03-27T14:35:59.631Z,4.67
2019-03-27T14:38:30.131Z,6.80
2019-03-27T14:41:00.664Z,5.27
2019-03-27T14:43:31.396Z,5.83
2019-03-27T14:46:02.434Z,6.87
2019-03-27T14:48:33.014Z,8.23
2019-03-27T14:51:06.015Z,6.97
2019-03-27T14:53:36.698Z,6.50
2019-03-27T14:56:07.196Z,6.67
2019-03-27T14:58:37.577Z,8.10
2019-03-27T15:01:08.118Z,7.30
2019-03-27T15:03:38.656Z,7.83
2019-03-27T15:06:09.341Z,6.60
2019-03-27T15:08:40.353Z,6.23
2019-03-27T15:11:10.804Z,6.13
2019-03-27T15:13:41.301Z,5.67
2019-03-27T15:16:11.817Z,6.67
2019-03-27T15:18:42.324Z,7.23
2019-03-27T15:21:13.506Z,5.37
2019-03-27T15:23:44.573Z,7.17
2019-03-27T15:26:15.497Z,6.10
2019-03-27T15:28:46.236Z,6.53
2019-03-27T15:31:20.647Z,7.53
2019-03-27T15:33:49.171Z,7.30
2019-03-27T15:36:20.212Z,5.83
2019-03-27T15:38:50.827Z,6.73
2019-03-27T15:41:21.275Z,6.40
2019-03-27T15:43:51.715Z,5.57
2019-03-27T15:46:22.976Z,7.40
2019-03-27T15:48:53.488Z,7.17
2019-03-27T15:51:24.060Z,7.57
2019-03-27T15:53:55.119Z,6.87
2019-03-27T15:56:25.745Z,7.03
2019-03-27T15:58:56.805Z,6.57
2019-03-27T16:01:27.556Z,6.87
2019-03-27T16:03:58.163Z,6.53
2019-03-27T16:06:29.017Z,6.90
2019-03-27T16:08:59.746Z,6.30
2019-03-27T16:11:30.397Z,7.03
2019-03-27T16:14:01.273Z,7.73
2019-03-27T16:16:31.897Z,6.23
2019-03-27T16:19:02.365Z,5.60
2019-03-27T16:21:33.004Z,6.07
2019-03-27T16:24:06.643Z,7.20
2019-03-27T16:26:35.896Z,6.57
2019-03-27T16:29:07.011Z,6.77
2019-03-27T16:31:38.823Z,6.63
2019-03-27T16:34:10.032Z,6.93
2019-03-27T16:36:40.614Z,6.50
2019-03-27T16:39:11.213Z,7.20
2019-03-27T16:41:42.263Z,7.23
2019-03-27T16:44:12.937Z,6.47
2019-03-27T16:46:43.698Z,7.20
2019-03-27T16:49:14.332Z,7.10
2019-03-27T16:51:45.367Z,6.90
2019-03-27T16:54:15.978Z,6.20
2019-03-27T16:56:46.436Z,5.70
2019-03-27T16:59:17.591Z,7.50
2019-03-27T17:01:48.358Z,6.40
2019-03-27T17:04:18.875Z,6.00
2019-03-27T17:06:49.408Z,6.27
2019-03-27T17:09:19.996Z,6.83
2019-03-27T17:11:50.585Z,7.30
2019-03-27T17:14:21.805Z,6.63
2019-03-27T17:16:52.417Z,5.73
2019-03-27T17:19:22.871Z,6.43
2019-03-27T17:21:53.455Z,5.50
2019-03-27T17:24:23.829Z,6.37
2019-03-27T17:26:54.462Z,5.67
2019-03-27T17:29:25.553Z,6.20
2019-03-27T17:31:56.200Z,6.67
2019-03-27T17:34:26.790Z,6.10
2019-03-27T17:36:57.219Z,8.30
2019-03-27T17:39:27.690Z,7.63
2019-03-27T17:41:58.262Z,7.30
2019-03-27T17:44:28.872Z,6.80
2019-03-27T17:46:59.694Z,6.40
2019-03-27T17:49:30.298Z,7.07
2019-03-27T17:52:00.760Z,7.10
2019-03-27T17:54:31.269Z,7.93
2019-03-27T17:57:01.929Z,7.47
2019-03-27T17:59:32.374Z,7.50
2019-03-27T18:02:03.203Z,6.77
2019-03-27T18:04:34.169Z,6.70
2019-03-27T18:07:04.959Z,7.20
2019-03-27T18:09:35.678Z,8.37
2019-03-27T18:12:06.412Z,8.20
2019-03-27T18:14:37.882Z,8.70
2019-03-27T18:17:08.944Z,8.30
2019-03-27T18:19:39.709Z,15.97
2019-03-27T18:22:10.321Z,15.80
2019-03-27T18:24:40.921Z,12.63
2019-03-27T18:27:11.731Z,10.13
2019-03-27T18:29:42.220Z,9.97
2019-03-27T18:32:12.842Z,9.90
2019-03-27T18:34:43.836Z,8.00
2019-03-27T18:37:16.066Z,8.07
2019-03-27T18:39:46.840Z,8.50
2019-03-27T18:42:17.315Z,9.37
2019-03-27T18:44:47.749Z,8.70
2019-03-27T18:47:18.606Z,9.17
2019-03-27T18:49:49.063Z,9.43
2019-03-27T18:52:19.677Z,11.27
2019-03-27T18:54:50.095Z,12.33
2019-03-27T18:57:20.546Z,12.00
2019-03-27T18:59:51.423Z,10.23
2019-03-27T19:02:22.070Z,9.90
2019-03-27T19:04:52.604Z,9.83
2019-03-27T19:07:23.327Z,13.57
2019-03-27T19:09:53.791Z,12.63
2019-03-27T19:12:26.890Z,12.57
2019-03-27T19:14:56.748Z,13.10
2019-03-27T19:17:27.537Z,14.30
2019-03-27T19:19:58.162Z,13.40
2019-03-27T19:22:30.718Z,14.57
2019-03-27T19:25:01.603Z,13.97
2019-03-27T19:27:32.096Z,12.70
2019-03-27T19:30:02.897Z,14.40
2019-03-27T19:32:33.400Z,13.97
2019-03-27T19:35:04.158Z,15.87
2019-03-27T19:37:35.110Z,13.83
2019-03-27T19:40:07.249Z,10.90
2019-03-27T19:42:37.961Z,11.67
2019-03-27T19:45:09.207Z,11.07
2019-03-27T19:47:39.921Z,9.50
2019-03-27T19:50:11.427Z,9.67
2019-03-27T19:52:41.985Z,8.63
2019-03-27T19:55:13.117Z,11.07
2019-03-27T19:57:44.142Z,11.43
2019-03-27T20:00:15.158Z,10.77
2019-03-27T20:02:45.699Z,10.73
2019-03-27T20:05:16.686Z,14.97
2019-03-27T20:07:47.702Z,15.20
2019-03-27T20:10:19.167Z,15.37
2019-03-27T20:12:50.141Z,13.30
2019-03-27T20:15:22.676Z,13.50
2019-03-27T20:17:53.455Z,13.53
2019-03-27T20:20:24.702Z,13.30
2019-03-27T20:22:55.335Z,11.73
2019-03-27T20:25:25.947Z,10.80
2019-03-27T20:27:56.909Z,10.00
2019-03-27T20:30:28.087Z,10.33
2019-03-27T20:32:59.037Z,9.93
2019-03-27T20:35:29.574Z,10.80
2019-03-27T20:38:00.278Z,11.20
2019-03-27T20:40:33.830Z,11.43
2019-03-27T20:43:04.723Z,11.37
2019-03-27T20:45:35.685Z,12.03
2019-03-27T20:48:06.713Z,11.87
2019-03-27T20:50:37.444Z,12.17
2019-03-27T20:53:08.220Z,11.30
2019-03-27T20:55:38.671Z,10.80
2019-03-27T20:58:09.237Z,10.70
2019-03-27T21:00:40.007Z,11.20
2019-03-27T21:03:11.348Z,11.23
2019-03-27T21:05:41.738Z,10.83
2019-03-27T21:08:12.636Z,11.13
2019-03-27T21:10:43.177Z,11.30
2019-03-27T21:13:13.829Z,10.80
2019-03-27T21:15:44.334Z,10.73
2019-03-27T21:18:14.942Z,11.17
2019-03-27T21:20:45.936Z,11.87
2019-03-27T21:23:16.379Z,12.60
2019-03-27T21:25:46.776Z,11.70
2019-03-27T21:28:17.276Z,11.70
2019-03-27T21:30:49.376Z,12.53
2019-03-27T21:33:20.451Z,9.83
2019-03-27T21:35:50.990Z,11.60
2019-03-27T21:38:23.300Z,13.33
2019-03-27T21:40:53.848Z,12.10
2019-03-27T21:43:24.621Z,12.73
2019-03-27T21:45:55.084Z,11.40
2019-03-27T21:48:25.907Z,12.30
2019-03-27T21:50:56.492Z,12.23
2019-03-27T21:53:27.356Z,11.67
2019-03-27T21:55:57.881Z,12.57
2019-03-27T21:58:28.965Z,10.03
2019-03-27T22:00:59.448Z,10.03
2019-03-27T22:03:30.036Z,10.40
2019-03-27T22:06:00.576Z,11.33
2019-03-27T22:08:31.081Z,12.17
2019-03-27T22:11:01.552Z,10.60
2019-03-27T22:13:32.303Z,12.27
2019-03-27T22:16:03.300Z,12.67
2019-03-27T22:18:34.285Z,12.60
2019-03-27T22:21:05.142Z,13.20
2019-03-27T22:23:35.975Z,12.90
2019-03-27T22:26:06.440Z,13.37
2019-03-27T22:28:37.385Z,13.77
2019-03-27T22:31:07.898Z,12.10
2019-03-27T22:33:38.379Z,13.40
2019-03-27T22:36:08.958Z,14.30
2019-03-27T22:38:39.436Z,14.70
2019-03-27T22:41:09.950Z,14.57
2019-03-27T22:43:40.458Z,13.33
2019-03-27T22:46:11.053Z,13.10
2019-03-27T22:48:42.710Z,13.87
2019-03-27T22:51:13.806Z,12.50
2019-03-27T22:53:44.524Z,12.67
2019-03-27T22:56:15.989Z,13.23
2019-03-27T22:58:46.461Z,12.60
2019-03-27T23:01:17.060Z,12.67
2019-03-27T23:03:47.539Z,11.93
2019-03-27T23:06:18.215Z,12.57
2019-03-27T23:08:48.683Z,14.93
2019-03-27T23:11:19.714Z,14.27
2019-03-27T23:13:50.202Z,14.67
2019-03-27T23:16:20.746Z,12.47
2019-03-27T23:18:51.170Z,13.20
2019-03-27T23:21:22.105Z,15.13
2019-03-27T23:23:52.641Z,14.67
2019-03-27T23:26:23.189Z,16.10
2019-03-27T23:28:53.801Z,16.50
2019-03-27T23:31:24.423Z,13.77
2019-03-27T23:33:54.870Z,13.53
2019-03-27T23:36:25.407Z,16.80
2019-03-27T23:38:56.178Z,14.83
2019-03-27T23:41:26.822Z,15.30
2019-03-27T23:43:57.254Z,14.33
2019-03-27T23:46:27.794Z,13.60
2019-03-27T23:48:59.469Z,14.27
2019-03-27T23:51:30.453Z,13.37
2019-03-27T23:54:01.415Z,13.77
2019-03-27T23:56:31.870Z,13.10
2019-03-27T23:59:02.512Z,13.63
